Time;durP1;ratioP1;P1;durP2;ratioP2;P2;SDS_P1;SDS_P2;PMS_P1;PMS_P2;Temp;Humidity;BMP_temperature;BMP_pressure;BME280_temperature;BME280_humidity;BME280_pressure;Samples;Min_cycle;Max_cycle;Signal;HPM_P1;HPM_P2
2021/07/07 00:01:01;;;;;;;17.92;10.55;;;17.10;1.00;;;;;;4954523;28;20499;-88
2021/07/07 00:03:27;;;;;;;14.70;10.32;;;17.00;1.00;;;;;;4955836;28;20508;-87
2021/07/07 00:05:52;;;;;;;14.77;10.73;;;17.10;1.00;;;;;;4956331;28;20456;-88
2021/07/07 00:08:18;;;;;;;13.02;10.27;;;17.00;1.00;;;;;;4956105;28;20037;-87
2021/07/07 00:10:44;;;;;;;14.80;10.48;;;17.00;1.00;;;;;;4956203;28;20047;-87
2021/07/07 00:13:10;;;;;;;14.88;10.63;;;17.10;1.00;;;;;;4955852;28;20027;-88
2021/07/07 00:15:36;;;;;;;17.15;11.85;;;17.10;1.00;;;;;;4956286;28;20074;-88
2021/07/07 00:18:09;;;;;;;14.85;11.10;;;17.10;1.00;;;;;;4956158;28;20031;-87
2021/07/07 00:20:43;;;;;;;15.40;10.73;;;17.00;1.00;;;;;;4955603;28;20043;-88
2021/07/07 00:23:09;;;;;;;16.73;10.57;;;17.00;1.00;;;;;;4955824;28;20055;-88
2021/07/07 00:25:35;;;;;;;15.43;10.80;;;17.00;1.00;;;;;;4955921;28;20544;-88
2021/07/07 00:28:01;;;;;;;15.18;11.20;;;16.90;1.00;;;;;;4955287;28;20062;-88
2021/07/07 00:30:27;;;;;;;16.08;11.43;;;17.00;1.00;;;;;;4971145;28;20067;-88
2021/07/07 00:32:54;;;;;;;15.45;10.93;;;17.10;1.00;;;;;;4955820;28;20058;-88
2021/07/07 00:35:20;;;;;;;17.63;11.50;;;17.20;1.00;;;;;;4957769;28;20141;-88
2021/07/07 00:37:46;;;;;;;19.33;12.43;;;17.10;1.00;;;;;;4956613;28;20039;-87
2021/07/07 00:40:13;;;;;;;16.73;11.65;;;17.10;1.00;;;;;;4955000;28;20038;-88
2021/07/07 00:42:38;;;;;;;15.82;11.75;;;17.20;1.00;;;;;;4955791;28;20488;-87
2021/07/07 00:45:05;;;;;;;18.08;12.55;;;17.20;1.00;;;;;;4955549;28;20046;-87
2021/07/07 00:47:30;;;;;;;20.55;13.30;;;17.20;1.00;;;;;;4970474;28;20456;-88
2021/07/07 00:49:57;;;;;;;18.67;13.27;;;17.20;1.00;;;;;;4955993;28;20075;-88
2021/07/07 00:52:22;;;;;;;17.88;12.35;;;17.20;1.00;;;;;;4955049;28;20477;-88
2021/07/07 00:54:49;;;;;;;21.35;12.93;;;17.10;1.00;;;;;;4955441;28;20031;-87
2021/07/07 00:57:16;;;;;;;21.10;13.20;;;17.00;1.00;;;;;;4957090;28;20035;-88
2021/07/07 00:59:44;;;;;;;18.48;12.60;;;17.00;1.00;;;;;;4955328;28;20027;-87
2021/07/07 01:02:10;;;;;;;17.83;12.23;;;17.00;1.00;;;;;;4955443;28;20059;-87
2021/07/07 01:04:36;;;;;;;15.57;11.45;;;17.10;1.00;;;;;;4955242;28;20031;-88
2021/07/07 01:07:02;;;;;;;15.15;11.63;;;17.10;1.00;;;;;;4953329;28;20034;-88
2021/07/07 01:09:28;;;;;;;18.38;11.73;;;17.20;1.00;;;;;;4970150;28;20121;-88
2021/07/07 01:11:54;;;;;;;20.08;12.93;;;17.20;1.00;;;;;;4953786;28;20173;-88
2021/07/07 01:14:20;;;;;;;17.27;11.70;;;17.00;1.00;;;;;;4954906;28;20031;-87
2021/07/07 01:16:45;;;;;;;15.32;11.18;;;17.00;1.00;;;;;;4954909;28;20041;-87
2021/07/07 01:19:12;;;;;;;16.02;10.45;;;17.10;1.00;;;;;;4954101;28;20035;-86
2021/07/07 01:21:50;;;;;;;15.02;10.57;;;17.20;1.00;;;;;;4954832;28;20034;-87
2021/07/07 01:24:17;;;;;;;14.15;10.57;;;17.00;1.00;;;;;;4954534;28;20027;-87
2021/07/07 01:26:44;;;;;;;17.25;11.05;;;16.90;1.00;;;;;;4954757;28;20031;-87
2021/07/07 01:29:12;;;;;;;14.68;10.82;;;17.00;1.00;;;;;;4954665;28;20038;-87
2021/07/07 01:31:38;;;;;;;15.07;11.18;;;17.10;1.00;;;;;;4954382;28;20034;-87
2021/07/07 01:34:05;;;;;;;15.70;10.90;;;17.10;1.00;;;;;;4954721;28;20024;-87
2021/07/07 01:36:32;;;;;;;17.70;10.32;;;17.00;1.00;;;;;;4954505;28;20042;-87
2021/07/07 01:38:57;;;;;;;16.58;11.07;;;17.00;1.00;;;;;;4954401;28;20041;-87
2021/07/07 01:41:25;;;;;;;16.33;11.35;;;17.00;1.00;;;;;;4955850;28;20110;-86
2021/07/07 01:43:51;;;;;;;15.70;10.70;;;17.00;1.00;;;;;;4954418;28;20110;-87
2021/07/07 01:46:17;;;;;;;15.05;10.77;;;17.00;1.00;;;;;;4953866;28;20031;-87
2021/07/07 01:48:42;;;;;;;17.92;10.30;;;17.30;1.00;;;;;;4953243;28;20449;-87
2021/07/07 01:51:08;;;;;;;15.23;10.57;;;17.00;1.00;;;;;;4954169;28;20053;-87
2021/07/07 01:53:34;;;;;;;18.23;10.35;;;17.00;1.00;;;;;;4954131;28;20019;-87
2021/07/07 01:56:00;;;;;;;16.45;10.48;;;17.00;1.00;;;;;;4954872;28;20031;-87
2021/07/07 01:58:25;;;;;;;17.95;11.63;;;17.10;1.00;;;;;;4953042;28;20069;-87
2021/07/07 02:00:51;;;;;;;19.83;10.50;;;17.10;1.00;;;;;;4952327;28;20024;-86
2021/07/07 02:03:16;;;;;;;19.63;11.10;;;17.10;1.00;;;;;;4954188;28;20397;-86
2021/07/07 02:05:42;;;;;;;19.17;11.27;;;17.10;1.00;;;;;;4954314;28;20095;-87
2021/07/07 02:08:09;;;;;;;17.17;10.60;;;17.10;1.00;;;;;;4954038;28;20437;-87
2021/07/07 02:10:36;;;;;;;16.70;10.98;;;17.00;1.00;;;;;;4953296;28;20514;-87
2021/07/07 02:13:04;;;;;;;16.60;11.23;;;16.90;1.00;;;;;;4953397;28;20319;-86
2021/07/07 02:15:32;;;;;;;18.65;11.13;;;16.90;1.00;;;;;;4954508;28;20035;-87
2021/07/07 02:17:58;;;;;;;18.48;11.30;;;16.90;1.00;;;;;;4953682;28;20034;-86
2021/07/07 02:20:26;;;;;;;16.77;10.93;;;16.90;1.00;;;;;;4954032;28;20393;-87
2021/07/07 02:22:52;;;;;;;18.40;11.75;;;16.90;1.00;;;;;;4953994;28;20046;-87
2021/07/07 02:25:23;;;;;;;18.50;11.93;;;16.90;1.00;;;;;;4953692;28;20027;-87
2021/07/07 02:27:49;;;;;;;23.58;13.25;;;16.90;1.00;;;;;;4954555;28;20106;-86
2021/07/07 02:30:17;;;;;;;20.52;12.80;;;16.90;1.00;;;;;;4968737;28;20067;-87
2021/07/07 02:32:43;;;;;;;19.85;13.32;;;17.00;1.00;;;;;;4953435;28;20028;-87
2021/07/07 02:35:13;;;;;;;20.70;12.70;;;17.00;1.00;;;;;;4954740;28;20452;-87
2021/07/07 02:37:39;;;;;;;20.65;13.15;;;17.00;1.00;;;;;;4953935;28;20038;-87
2021/07/07 02:40:06;;;;;;;24.40;13.07;;;17.00;1.00;;;;;;4953218;28;20023;-86
2021/07/07 02:42:33;;;;;;;22.25;12.80;;;16.90;1.00;;;;;;4970746;28;20042;-87
2021/07/07 02:44:59;;;;;;;21.65;13.15;;;17.00;1.00;;;;;;4957420;28;20031;-87
2021/07/07 02:47:25;;;;;;;21.98;12.48;;;17.00;1.00;;;;;;4957255;28;20407;-87
2021/07/07 02:49:50;;;;;;;19.77;12.55;;;17.00;1.00;;;;;;4957161;28;20054;-87
2021/07/07 02:52:16;;;;;;;18.02;11.23;;;17.00;1.00;;;;;;4957071;28;20043;-87
2021/07/07 02:54:42;;;;;;;17.88;11.90;;;16.90;1.00;;;;;;4957765;28;20058;-87
2021/07/07 02:57:07;;;;;;;17.30;11.55;;;16.90;1.00;;;;;;4957583;28;20039;-87
2021/07/07 02:59:33;;;;;;;19.85;11.73;;;16.90;1.00;;;;;;4957226;28;20058;-87
2021/07/07 03:01:59;;;;;;;15.77;11.02;;;16.90;1.00;;;;;;4957410;28;20035;-87
2021/07/07 03:04:24;;;;;;;19.65;11.35;;;16.90;1.00;;;;;;4956332;28;20110;-87
2021/07/07 03:06:50;;;;;;;17.45;11.43;;;16.90;1.00;;;;;;4957503;28;20034;-87
2021/07/07 03:09:16;;;;;;;18.63;11.75;;;16.90;1.00;;;;;;4957089;28;20023;-87
2021/07/07 03:11:41;;;;;;;18.50;10.30;;;17.00;1.00;;;;;;4955888;28;20108;-87
2021/07/07 03:14:07;;;;;;;19.10;11.63;;;17.00;1.00;;;;;;4958276;28;20026;-87
2021/07/07 03:16:33;;;;;;;17.73;11.15;;;17.10;1.00;;;;;;4956886;28;20476;-87
2021/07/07 03:18:58;;;;;;;20.35;12.30;;;17.10;1.00;;;;;;4956517;28;20793;-87
2021/07/07 03:21:24;;;;;;;21.73;12.07;;;17.00;1.00;;;;;;4957222;28;20420;-87
2021/07/07 03:23:50;;;;;;;18.92;11.63;;;17.10;1.00;;;;;;4956905;28;20027;-88
2021/07/07 03:26:16;;;;;;;17.98;10.90;;;17.10;1.00;;;;;;4957029;28;20031;-87
2021/07/07 03:28:42;;;;;;;18.05;11.38;;;17.20;1.00;;;;;;4955495;28;20042;-87
2021/07/07 03:31:07;;;;;;;21.70;12.60;;;17.30;1.00;;;;;;4956251;28;20047;-88
2021/07/07 03:33:33;;;;;;;16.98;11.30;;;17.30;1.00;;;;;;4957711;28;20035;-87
2021/07/07 03:36:00;;;;;;;18.40;12.00;;;17.20;1.00;;;;;;4971877;28;20035;-87
2021/07/07 03:38:26;;;;;;;18.20;11.50;;;17.30;1.00;;;;;;4956681;28;20094;-87
2021/07/07 03:40:52;;;;;;;18.98;11.68;;;17.10;1.00;;;;;;4956953;28;20094;-87
2021/07/07 03:43:18;;;;;;;20.00;11.95;;;17.10;1.00;;;;;;4956086;28;20023;-87
2021/07/07 03:45:44;;;;;;;18.95;12.32;;;17.10;1.00;;;;;;4956369;28;20031;-87
2021/07/07 03:48:10;;;;;;;18.80;12.57;;;17.20;1.00;;;;;;4956854;28;20485;-88
2021/07/07 03:50:37;;;;;;;20.25;13.25;;;17.10;1.00;;;;;;4971034;28;20063;-88
2021/07/07 03:53:06;;;;;;;19.60;12.90;;;17.20;1.00;;;;;;4956259;28;20070;-86
2021/07/07 03:55:33;;;;;;;20.13;12.68;;;17.20;1.00;;;;;;4956790;28;20114;-87
2021/07/07 03:58:00;;;;;;;20.05;12.85;;;17.30;1.00;;;;;;4955938;28;20476;-87
2021/07/07 04:00:26;;;;;;;22.30;12.93;;;17.30;1.00;;;;;;4955963;28;20046;-87
2021/07/07 04:02:54;;;;;;;21.85;13.20;;;17.20;1.00;;;;;;4956450;28;20063;-87
2021/07/07 04:05:19;;;;;;;19.55;13.27;;;17.10;1.00;;;;;;4956482;28;20035;-87
2021/07/07 04:07:45;;;;;;;21.25;12.18;;;17.10;1.00;;;;;;4956313;28;20102;-88
2021/07/07 04:10:13;;;;;;;19.67;12.50;;;17.00;1.00;;;;;;4955390;28;20496;-87
2021/07/07 04:12:40;;;;;;;17.67;11.73;;;17.00;1.00;;;;;;4956503;28;20082;-87
2021/07/07 04:15:07;;;;;;;19.52;12.02;;;17.10;1.00;;;;;;4955664;28;20480;-87
2021/07/07 04:17:33;;;;;;;20.08;12.25;;;17.20;1.00;;;;;;4954671;28;20106;-88
2021/07/07 04:19:59;;;;;;;20.38;12.93;;;17.20;1.00;;;;;;4956204;28;20031;-87
2021/07/07 04:22:25;;;;;;;21.27;13.15;;;17.20;1.00;;;;;;4954191;28;20451;-87
2021/07/07 04:24:50;;;;;;;21.30;13.48;;;17.10;1.00;;;;;;4957287;28;20035;-87
2021/07/07 04:27:16;;;;;;;22.55;13.52;;;17.10;1.00;;;;;;4964994;28;20024;-88
2021/07/07 04:29:41;;;;;;;24.05;14.60;;;17.10;1.00;;;;;;4947737;28;20408;-87
2021/07/07 04:32:07;;;;;;;23.33;14.57;;;17.20;1.00;;;;;;4955675;28;20039;-88
2021/07/07 04:34:33;;;;;;;23.05;14.20;;;17.20;1.00;;;;;;4955960;28;20500;-87
2021/07/07 04:36:59;;;;;;;27.60;14.75;;;17.10;1.00;;;;;;4956501;28;20062;-87
2021/07/07 04:39:25;;;;;;;23.00;13.73;;;17.10;1.00;;;;;;4955682;28;20101;-87
2021/07/07 04:41:50;;;;;;;21.30;13.60;;;17.00;1.00;;;;;;4955484;28;20031;-87
2021/07/07 04:44:16;;;;;;;24.35;13.02;;;17.10;1.00;;;;;;4955486;28;20035;-88
2021/07/07 04:46:42;;;;;;;24.70;13.77;;;17.10;1.00;;;;;;4955346;28;20065;-88
2021/07/07 04:49:07;;;;;;;21.92;13.15;;;17.00;1.00;;;;;;4955337;28;20027;-88
2021/07/07 04:51:33;;;;;;;25.20;14.25;;;17.00;1.00;;;;;;4955240;28;20566;-88
2021/07/07 04:53:59;;;;;;;28.02;14.38;;;16.90;1.00;;;;;;4970326;28;20615;-88
2021/07/07 04:56:25;;;;;;;24.23;13.70;;;16.90;1.00;;;;;;4954374;28;20126;-87
2021/07/07 04:58:51;;;;;;;22.77;13.00;;;17.00;1.00;;;;;;4955386;28;20075;-88
2021/07/07 05:01:16;;;;;;;25.35;13.82;;;17.10;1.00;;;;;;4954535;28;20042;-88
2021/07/07 05:03:42;;;;;;;24.90;14.00;;;17.00;1.00;;;;;;4955152;28;20035;-88
2021/07/07 05:06:08;;;;;;;27.20;14.07;;;17.10;1.00;;;;;;4954268;28;20473;-88
2021/07/07 05:08:34;;;;;;;23.20;13.35;;;17.10;1.00;;;;;;4957273;28;20435;-87
2021/07/07 05:10:59;;;;;;;22.00;13.30;;;17.20;1.00;;;;;;4954055;28;20042;-88
2021/07/07 05:13:25;;;;;;;23.42;13.43;;;17.30;1.00;;;;;;4955068;28;20071;-89
2021/07/07 05:15:52;;;;;;;22.20;12.15;;;17.40;1.00;;;;;;4954216;28;20033;-91
2021/07/07 05:18:19;;;;;;;21.50;12.63;;;17.40;1.00;;;;;;4954783;28;20031;-91
2021/07/07 05:20:45;;;;;;;18.55;11.25;;;17.60;1.00;;;;;;4955039;28;20035;-89
2021/07/07 05:23:11;;;;;;;21.38;12.02;;;17.50;1.00;;;;;;4956780;28;20020;-91
2021/07/07 05:25:38;;;;;;;23.35;12.85;;;17.50;1.00;;;;;;4955325;28;20447;-93
2021/07/07 05:28:05;;;;;;;19.17;11.80;;;17.50;1.00;;;;;;4955532;28;20034;-93
2021/07/07 05:30:32;;;;;;;20.20;11.25;;;17.60;1.00;;;;;;4957642;28;20039;-94
2021/07/07 05:33:00;;;;;;;19.17;10.77;;;17.70;1.00;;;;;;4956083;28;20038;-93
2021/07/07 05:35:26;;;;;;;23.05;12.88;;;17.80;1.00;;;;;;4955337;28;20107;-94
2021/07/07 05:37:52;;;;;;;19.65;11.38;;;17.80;1.00;;;;;;4955131;28;20054;-92
2021/07/07 05:40:19;;;;;;;21.33;12.23;;;17.70;1.00;;;;;;4953450;28;20031;-93
2021/07/07 05:42:51;;;;;;;21.15;12.63;;;17.80;1.00;;;;;;4974165;28;20455;-93
2021/07/07 05:45:17;;;;;;;22.85;12.88;;;18.00;1.00;;;;;;4974723;28;20027;-94
2021/07/07 05:47:43;;;;;;;20.13;11.95;;;18.00;1.00;;;;;;4965040;28;20039;-94
2021/07/07 05:50:09;;;;;;;18.13;11.68;;;18.00;1.00;;;;;;4955798;28;20065;-94
2021/07/07 05:52:34;;;;;;;20.40;12.55;;;17.90;1.00;;;;;;4955617;28;20049;-93
2021/07/07 05:55:00;;;;;;;22.02;12.80;;;18.00;1.00;;;;;;4954734;28;20403;-90
2021/07/07 05:57:37;;;;;;;22.42;12.75;;;18.00;1.00;;;;;;4955643;28;20571;-90
2021/07/07 06:00:12;;;;;;;16.08;8.80;;;18.10;1.00;;;;;;4955100;28;20429;-90
2021/07/07 06:02:39;;;;;;;12.02;7.40;;;18.20;1.00;;;;;;4955999;28;20031;-90
2021/07/07 06:05:07;;;;;;;11.77;7.05;;;18.30;1.00;;;;;;4955480;28;20484;-90
2021/07/07 06:07:33;;;;;;;13.15;7.63;;;18.40;1.00;;;;;;4956582;28;20031;-90
2021/07/07 06:09:58;;;;;;;11.35;7.40;;;18.30;1.00;;;;;;4956821;28;20023;-90
2021/07/07 06:12:24;;;;;;;14.07;9.10;;;18.60;1.00;;;;;;4954899;28;20043;-90
2021/07/07 06:14:50;;;;;;;15.45;10.15;;;18.70;1.00;;;;;;4966466;28;20029;-90
2021/07/07 06:17:16;;;;;;;14.90;9.27;;;18.50;1.00;;;;;;4944916;28;20485;-90
2021/07/07 06:19:41;;;;;;;12.98;8.23;;;18.60;1.00;;;;;;4958244;28;20095;-91
2021/07/07 06:22:07;;;;;;;15.70;9.88;;;18.60;1.00;;;;;;4955482;28;20492;-90
2021/07/07 06:24:32;;;;;;;15.93;9.20;;;18.60;1.00;;;;;;4957317;28;20046;-90
2021/07/07 06:26:58;;;;;;;13.02;10.00;;;18.80;1.00;;;;;;4957968;28;20779;-90
2021/07/07 06:29:24;;;;;;;16.17;11.68;;;18.90;1.00;;;;;;4958133;28;20023;-90
2021/07/07 06:31:49;;;;;;;16.50;12.68;;;19.10;1.00;;;;;;4959754;28;20042;-90
2021/07/07 06:34:15;;;;;;;15.55;12.30;;;19.10;1.00;;;;;;4958158;28;20019;-90
2021/07/07 06:36:41;;;;;;;17.20;13.05;;;19.20;1.00;;;;;;4958285;28;20480;-90
2021/07/07 06:39:06;;;;;;;18.58;13.27;;;19.10;1.00;;;;;;4957509;28;20027;-90
2021/07/07 06:41:32;;;;;;;21.13;14.70;;;19.10;1.00;;;;;;4958505;28;20028;-90
2021/07/07 06:43:59;;;;;;;18.80;13.73;;;19.00;1.00;;;;;;4958062;28;20403;-90
2021/07/07 06:46:24;;;;;;;20.05;12.77;;;19.30;1.00;;;;;;4957104;28;20035;-90
2021/07/07 06:48:50;;;;;;;18.20;12.98;;;19.20;1.00;;;;;;4957443;28;20429;-90
2021/07/07 06:51:16;;;;;;;14.73;10.98;;;19.40;1.00;;;;;;4957692;28;20051;-90
2021/07/07 06:53:42;;;;;;;15.82;10.95;;;19.40;1.00;;;;;;4957573;28;20110;-90
2021/07/07 06:56:10;;;;;;;17.13;12.50;;;19.50;1.00;;;;;;4957599;28;20034;-90
2021/07/07 06:58:36;;;;;;;16.23;12.13;;;19.60;1.00;;;;;;4958544;28;20035;-90
2021/07/07 07:01:02;;;;;;;16.73;12.57;;;19.90;1.00;;;;;;4957083;28;20090;-90
2021/07/07 07:03:28;;;;;;;16.65;11.77;;;19.90;1.00;;;;;;4957220;28;20082;-91
2021/07/07 07:05:54;;;;;;;17.83;12.63;;;19.90;1.00;;;;;;4957422;28;20451;-90
2021/07/07 07:08:19;;;;;;;16.60;12.00;;;20.10;1.00;;;;;;4957390;28;20577;-90
2021/07/07 07:10:45;;;;;;;17.27;12.77;;;20.20;1.00;;;;;;4956944;28;20039;-90
2021/07/07 07:13:13;;;;;;;14.40;11.65;;;20.10;1.00;;;;;;4956450;28;20027;-90
2021/07/07 07:15:39;;;;;;;14.80;10.07;;;20.20;1.00;;;;;;4957284;28;20031;-90
2021/07/07 07:18:05;;;;;;;14.73;10.45;;;19.70;1.00;;;;;;4957389;28;20489;-90
2021/07/07 07:20:31;;;;;;;12.73;9.57;;;19.90;1.00;;;;;;4956873;28;20404;-90
2021/07/07 07:22:57;;;;;;;12.05;8.52;;;20.20;1.00;;;;;;4956623;28;20039;-90
2021/07/07 07:25:23;;;;;;;10.23;8.07;;;20.60;1.00;;;;;;4956025;28;20058;-90
2021/07/07 07:27:49;;;;;;;9.85;8.68;;;21.00;1.00;;;;;;4956985;28;20054;-90
2021/07/07 07:30:15;;;;;;;11.05;9.18;;;20.90;1.00;;;;;;4955917;28;20523;-91
2021/07/07 07:32:40;;;;;;;11.02;9.13;;;21.20;1.00;;;;;;4956787;28;20034;-91
2021/07/07 07:35:07;;;;;;;11.68;8.15;;;20.90;1.00;;;;;;4971674;28;20496;-90
2021/07/07 07:38:39;;;;;;;11.20;8.00;;;20.60;1.00;;;;;;4956758;28;20023;-90
2021/07/07 07:43:01;;;;;;;8.88;7.95;;;20.60;1.00;;;;;;4954323;29;20035;-91
2021/07/07 07:45:27;;;;;;;8.82;7.82;;;20.60;1.00;;;;;;4956476;28;20130;-90
2021/07/07 07:47:52;;;;;;;10.90;8.23;;;20.90;1.00;;;;;;4956763;28;20106;-91
2021/07/07 07:50:18;;;;;;;9.80;8.65;;;21.20;1.00;;;;;;4956128;28;20074;-90
2021/07/07 07:52:45;;;;;;;11.70;8.70;;;21.30;1.00;;;;;;4940735;28;20509;-91
2021/07/07 07:55:11;;;;;;;8.02;7.05;;;21.20;1.00;;;;;;4955882;28;20060;-91
2021/07/07 07:57:40;;;;;;;8.43;6.78;;;21.30;1.00;;;;;;4956880;28;20489;-90
2021/07/07 08:00:07;;;;;;;8.32;6.57;;;20.90;1.00;;;;;;4956256;28;20497;-91
2021/07/07 08:02:33;;;;;;;9.45;7.25;;;21.10;1.00;;;;;;4956128;28;20039;-90
2021/07/07 08:04:58;;;;;;;10.30;6.07;;;21.30;1.00;;;;;;4957124;28;20423;-88
2021/07/07 08:07:27;;;;;;;5.20;4.57;;;21.70;1.00;;;;;;4955504;28;20519;-90
2021/07/07 08:09:54;;;;;;;3.30;3.00;;;21.60;1.00;;;;;;4955725;28;20035;-90
2021/07/07 08:12:19;;;;;;;6.03;3.03;;;21.60;1.00;;;;;;4957492;28;20043;-90
2021/07/07 08:14:45;;;;;;;4.40;3.53;;;21.80;1.00;;;;;;4954773;28;20358;-91
2021/07/07 08:17:10;;;;;;;4.18;3.25;;;21.60;1.00;;;;;;4956127;28;20493;-91
2021/07/07 08:19:36;;;;;;;6.50;4.18;;;21.80;1.00;;;;;;4955620;28;20376;-90
2021/07/07 08:22:02;;;;;;;5.28;4.55;;;21.90;1.00;;;;;;4955703;28;20036;-89
2021/07/07 08:24:27;;;;;;;5.88;4.60;;;22.20;1.00;;;;;;4973092;28;20038;-94
2021/07/07 08:26:54;;;;;;;6.45;3.97;;;22.30;1.00;;;;;;4970220;28;20039;-93
2021/07/07 08:29:20;;;;;;;4.32;3.92;;;23.00;1.00;;;;;;4956771;28;20034;-94
2021/07/07 08:31:46;;;;;;;6.68;3.53;;;23.30;1.00;;;;;;4956387;28;20038;-93
2021/07/07 08:34:11;;;;;;;6.72;3.63;;;23.70;1.00;;;;;;4956594;28;20065;-93
2021/07/07 08:36:37;;;;;;;5.63;3.50;;;23.20;1.00;;;;;;4963974;28;20042;-94
2021/07/07 08:39:04;;;;;;;4.05;3.13;;;23.20;1.00;;;;;;4956416;28;20031;-93
2021/07/07 08:41:31;;;;;;;3.63;2.40;;;23.80;1.00;;;;;;4956362;28;20031;-92
2021/07/07 08:43:56;;;;;;;3.75;2.55;;;24.10;99.90;;;;;;4956545;28;20043;-93
2021/07/07 08:46:22;;;;;;;3.38;2.80;;;24.30;99.90;;;;;;4956222;28;20027;-92
2021/07/07 08:48:48;;;;;;;4.75;3.10;;;24.10;99.90;;;;;;4955878;28;20605;-93
2021/07/07 08:51:14;;;;;;;7.88;3.65;;;23.90;99.90;;;;;;4955963;28;20130;-93
2021/07/07 08:53:41;;;;;;;6.78;3.70;;;24.10;99.90;;;;;;4954308;29;20035;-93
2021/07/07 08:56:11;;;;;;;3.90;3.13;;;23.90;99.90;;;;;;4955830;28;20033;-93
2021/07/07 08:58:37;;;;;;;3.67;2.75;;;23.60;99.90;;;;;;4955947;28;20063;-93
2021/07/07 09:01:03;;;;;;;3.33;2.65;;;23.50;99.90;;;;;;4956144;28;20062;-93
2021/07/07 09:03:29;;;;;;;4.00;2.50;;;23.70;99.90;;;;;;4954715;29;20087;-93
2021/07/07 09:06:05;;;;;;;2.95;2.20;;;23.70;99.90;;;;;;4954753;28;20031;-93
2021/07/07 09:08:41;;;;;;;7.43;2.22;;;23.70;99.90;;;;;;4956417;28;20027;-93
2021/07/07 09:11:18;;;;;;;2.75;2.20;;;23.90;99.90;;;;;;4955492;28;20050;-94
2021/07/07 09:13:45;;;;;;;3.17;2.05;;;24.10;1.00;;;;;;4958445;28;20035;-94
2021/07/07 09:16:16;;;;;;;4.18;1.90;;;23.80;99.90;;;;;;4975669;28;20447;-93
2021/07/07 09:18:43;;;;;;;4.18;2.50;;;24.00;99.90;;;;;;4955923;28;20027;-91
2021/07/07 09:21:28;;;;;;;3.05;2.65;;;23.60;99.90;;;;;;4968118;28;20518;-93
2021/07/07 09:23:56;;;;;;;3.15;2.80;;;23.10;99.90;;;;;;4970767;28;20027;-91
2021/07/07 09:26:30;;;;;;;5.75;2.80;;;22.80;99.90;;;;;;4956385;28;20035;-91
2021/07/07 09:28:56;;;;;;;3.65;2.65;;;22.70;99.90;;;;;;4956683;28;20046;-90
2021/07/07 09:31:42;;;;;;;2.70;2.40;;;22.60;99.90;;;;;;4954534;28;20043;-91
2021/07/07 09:34:22;;;;;;;3.60;2.70;;;22.70;99.90;;;;;;4954581;28;20027;-90
2021/07/07 09:36:52;;;;;;;4.47;2.70;;;22.90;99.90;;;;;;4955672;28;20031;-91
2021/07/07 09:39:18;;;;;;;4.38;2.95;;;23.20;99.90;;;;;;4962110;28;20035;-90
2021/07/07 09:41:49;;;;;;;4.93;2.95;;;23.30;99.90;;;;;;4954910;28;20031;-94
2021/07/07 09:44:17;;;;;;;3.70;2.85;;;23.40;99.90;;;;;;4960269;28;20384;-92
2021/07/07 09:46:44;;;;;;;3.10;2.67;;;23.50;99.90;;;;;;4955310;28;20122;-92
2021/07/07 09:49:10;;;;;;;2.70;2.50;;;23.70;99.90;;;;;;4954250;28;20038;-90
2021/07/07 09:51:36;;;;;;;4.30;2.33;;;23.80;99.90;;;;;;4952371;28;20138;-89
2021/07/07 09:54:06;;;;;;;3.75;2.60;;;24.20;99.90;;;;;;4954206;28;20167;-89
2021/07/07 09:56:33;;;;;;;4.70;2.67;;;24.00;99.90;;;;;;4956169;28;20050;-89
2021/07/07 09:59:00;;;;;;;4.68;3.13;;;24.10;99.90;;;;;;4954705;28;20031;-90
2021/07/07 10:01:26;;;;;;;3.65;2.70;;;24.20;99.90;;;;;;4953807;28;20035;-89
2021/07/07 10:03:52;;;;;;;4.55;3.10;;;24.20;99.90;;;;;;4955360;28;20028;-90
2021/07/07 10:06:18;;;;;;;4.22;2.67;;;23.90;99.90;;;;;;4954392;28;20037;-89
2021/07/07 10:08:47;;;;;;;5.57;2.80;;;23.70;99.90;;;;;;4954037;28;20035;-89
2021/07/07 10:11:15;;;;;;;2.60;2.40;;;23.60;99.90;;;;;;4954029;28;20039;-90
2021/07/07 10:13:41;;;;;;;2.63;2.30;;;23.50;99.90;;;;;;4954642;28;20051;-89
2021/07/07 10:16:07;;;;;;;4.53;2.40;;;23.30;99.90;;;;;;4952932;28;20063;-89
2021/07/07 10:18:34;;;;;;;3.10;2.47;;;23.60;99.90;;;;;;4954233;28;20058;-90
2021/07/07 10:21:00;;;;;;;4.32;2.50;;;24.10;99.90;;;;;;4954148;28;20039;-90
2021/07/07 10:23:27;;;;;;;4.35;2.17;;;24.70;99.90;;;;;;4953716;28;20047;-90
2021/07/07 10:25:53;;;;;;;3.00;2.00;;;25.10;99.90;;;;;;4954011;28;20059;-90
2021/07/07 10:28:20;;;;;;;3.92;1.98;;;25.20;99.90;;;;;;4951850;28;20086;-90
2021/07/07 10:31:00;;;;;;;2.00;1.70;;;25.40;99.90;;;;;;4953545;28;20063;-90
2021/07/07 10:33:28;;;;;;;3.33;2.10;;;25.50;99.90;;;;;;4956372;28;20032;-90
2021/07/07 10:36:28;;;;;;;4.45;1.60;;;25.80;99.90;;;;;;4954097;28;20123;-90
2021/07/07 10:38:57;;;;;;;3.42;1.80;;;26.10;99.90;;;;;;4954141;28;20102;-90
2021/07/07 10:41:41;;;;;;;5.43;1.90;;;26.90;99.90;;;;;;4954285;28;20020;-90
2021/07/07 10:44:31;;;;;;;3.92;1.63;;;26.90;99.90;;;;;;4954997;28;20035;-90
2021/07/07 10:47:31;;;;;;;5.10;1.75;;;26.40;99.90;;;;;;4940138;28;20035;-90
2021/07/07 10:49:57;;;;;;;4.40;1.80;;;27.00;99.90;;;;;;4939740;28;20094;-90
2021/07/07 10:52:38;;;;;;;4.88;2.13;;;27.20;99.90;;;;;;4952941;28;20023;-90
2021/07/07 10:55:08;;;;;;;2.55;1.60;;;26.80;99.90;;;;;;4953042;28;20024;-89
2021/07/07 10:57:37;;;;;;;3.35;1.90;;;27.50;99.90;;;;;;4953902;28;20058;-90
2021/07/07 11:00:31;;;;;;;2.78;1.48;;;27.70;99.90;;;;;;4953716;28;20078;-90
2021/07/07 11:03:20;;;;;;;3.47;1.52;;;27.80;99.90;;;;;;4969299;28;20106;-90
2021/07/07 11:05:46;;;;;;;2.55;1.60;;;27.50;99.90;;;;;;4971941;28;20544;-91
2021/07/07 11:08:19;;;;;;;4.03;1.70;;;27.30;99.90;;;;;;4957447;28;20115;-90
2021/07/07 11:10:53;;;;;;;2.28;1.60;;;27.30;99.90;;;;;;4941500;28;20046;-90
2021/07/07 11:13:19;;;;;;;2.25;1.48;;;27.00;99.90;;;;;;4953179;28;20032;-90
2021/07/07 11:15:47;;;;;;;2.45;1.75;;;26.60;99.90;;;;;;4970064;28;20369;-91
2021/07/07 11:18:21;;;;;;;2.35;1.70;;;25.90;99.90;;;;;;4956923;28;20400;-90
2021/07/07 11:21:00;;;;;;;6.55;2.45;;;25.90;99.90;;;;;;4956589;28;20114;-91
2021/07/07 11:23:26;;;;;;;2.03;1.60;;;26.50;99.90;;;;;;4956884;28;20031;-90
2021/07/07 11:25:52;;;;;;;2.75;1.50;;;27.00;99.90;;;;;;4972879;28;20523;-92
2021/07/07 11:28:18;;;;;;;4.95;2.17;;;26.90;99.90;;;;;;4956603;28;20122;-93
2021/07/07 11:30:44;;;;;;;2.50;1.60;;;27.00;99.90;;;;;;4956990;28;20126;-89
2021/07/07 11:33:10;;;;;;;2.88;1.58;;;27.20;99.90;;;;;;4956362;28;20031;-91
2021/07/07 11:35:40;;;;;;;3.17;1.52;;;27.40;99.90;;;;;;4959026;28;20034;-88
2021/07/07 11:38:27;;;;;;;2.25;1.40;;;26.70;99.90;;;;;;4957850;28;20030;-88
2021/07/07 11:40:54;;;;;;;3.13;1.70;;;26.90;99.90;;;;;;4942379;28;20119;-89
2021/07/07 11:43:27;;;;;;;3.05;1.60;;;26.60;99.90;;;;;;4955600;28;20058;-88
2021/07/07 11:46:17;;;;;;;5.70;1.75;;;26.90;99.90;;;;;;4957050;28;20027;-88
2021/07/07 11:48:45;;;;;;;3.10;1.50;;;27.20;99.90;;;;;;4961214;28;20106;-89
2021/07/07 11:51:15;;;;;;;5.32;1.85;;;27.80;99.90;;;;;;4958676;28;20059;-87
2021/07/07 11:53:45;;;;;;;3.40;1.60;;;28.00;99.90;;;;;;4958933;28;20027;-88
2021/07/07 11:56:19;;;;;;;2.80;1.40;;;28.10;99.90;;;;;;4967499;28;20109;-88
2021/07/07 11:58:46;;;;;;;1.85;1.50;;;28.20;99.90;;;;;;4963333;28;20056;-88
2021/07/07 12:01:18;;;;;;;4.75;1.75;;;27.90;99.90;;;;;;4952856;28;20035;-87
2021/07/07 12:04:00;;;;;;;1.80;1.30;;;27.80;99.90;;;;;;4954562;28;20087;-88
2021/07/07 12:06:41;;;;;;;1.95;1.50;;;27.80;99.90;;;;;;4968706;28;20038;-88
2021/07/07 12:09:18;;;;;;;2.40;1.30;;;28.10;99.90;;;;;;4958784;28;20042;-88
2021/07/07 12:11:52;;;;;;;3.83;1.50;;;29.30;99.90;;;;;;4958591;28;20039;-87
2021/07/07 12:14:19;;;;;;;1.70;1.20;;;32.20;99.90;;;;;;4955027;28;20027;-88
2021/07/07 12:16:46;;;;;;;1.73;1.15;;;32.20;99.90;;;;;;4939455;29;20027;-88
2021/07/07 12:19:13;;;;;;;2.25;1.30;;;29.40;99.90;;;;;;4958379;28;20378;-88
2021/07/07 12:21:42;;;;;;;2.10;1.52;;;27.90;99.90;;;;;;4965151;28;20023;-89
2021/07/07 12:24:13;;;;;;;3.45;1.60;;;30.30;99.90;;;;;;4963691;28;20027;-89
2021/07/07 12:26:45;;;;;;;4.53;1.50;;;34.70;99.90;;;;;;4958458;28;20022;-88
2021/07/07 12:29:14;;;;;;;3.58;1.52;;;35.10;99.90;;;;;;4957407;28;20034;-88
2021/07/07 12:31:42;;;;;;;3.45;1.45;;;36.20;99.90;;;;;;4955034;28;20094;-89
2021/07/07 12:34:09;;;;;;;4.18;1.50;;;36.60;99.90;;;;;;4959068;28;20083;-88
2021/07/07 12:36:37;;;;;;;2.38;1.30;;;35.50;99.90;;;;;;4958703;28;20027;-88
2021/07/07 12:39:17;;;;;;;2.10;1.38;;;35.30;99.90;;;;;;4958492;28;20034;-89
2021/07/07 12:41:47;;;;;;;4.18;1.40;;;37.20;99.90;;;;;;4957863;28;20050;-90
2021/07/07 12:44:14;;;;;;;3.22;1.30;;;37.20;99.90;;;;;;4969696;28;20101;-89
2021/07/07 12:46:50;;;;;;;1.45;1.30;;;36.60;99.90;;;;;;4955054;28;20031;-89
2021/07/07 12:49:22;;;;;;;2.47;1.20;;;37.30;99.90;;;;;;4966279;28;20023;-88